sensor_id;sensor_type;location;lat;lon;timestamp;temperature;humidity
27559;DHT22;15002;52.028;5.670;2023-03-11T00:00:48;3.80;99.90
27559;DHT22;15002;52.028;5.670;2023-03-11T00:03:16;3.80;99.90
27559;DHT22;15002;52.028;5.670;2023-03-11T00:05:44;3.90;99.90
27559;DHT22;15002;52.028;5.670;2023-03-11T00:08:14;3.90;99.90
27559;DHT22;15002;52.028;5.670;2023-03-11T00:10:42;3.90;99.90
27559;DHT22;15002;52.028;5.670;2023-03-11T00:13:10;3.80;99.90
27559;DHT22;15002;52.028;5.670;2023-03-11T00:15:37;3.80;99.90
27559;DHT22;15002;52.028;5.670;2023-03-11T00:18:03;3.80;99.90
27559;DHT22;15002;52.028;5.670;2023-03-11T00:20:34;3.80;99.90
27559;DHT22;15002;52.028;5.670;2023-03-11T00:23:02;3.80;99.90
27559;DHT22;15002;52.028;5.670;2023-03-11T00:25:30;3.80;99.90
27559;DHT22;15002;52.028;5.670;2023-03-11T00:27:56;3.80;99.90
27559;DHT22;15002;52.028;5.670;2023-03-11T00:30:24;3.70;99.90
27559;DHT22;15002;52.028;5.670;2023-03-11T00:32:52;3.70;99.90
27559;DHT22;15002;52.028;5.670;2023-03-11T00:35:20;3.70;99.90
27559;DHT22;15002;52.028;5.670;2023-03-11T00:37:47;3.70;99.90
27559;DHT22;15002;52.028;5.670;2023-03-11T00:40:17;3.70;99.90
27559;DHT22;15002;52.028;5.670;2023-03-11T00:42:43;3.70;99.90
27559;DHT22;15002;52.028;5.670;2023-03-11T00:45:10;3.60;99.90
27559;DHT22;15002;52.028;5.670;2023-03-11T00:47:36;3.60;99.90
27559;DHT22;15002;52.028;5.670;2023-03-11T00:50:02;3.60;99.90
27559;DHT22;15002;52.028;5.670;2023-03-11T00:52:28;3.60;99.90
27559;DHT22;15002;52.028;5.670;2023-03-11T00:54:54;3.60;99.90
27559;DHT22;15002;52.028;5.670;2023-03-11T00:57:20;3.60;99.90
27559;DHT22;15002;52.028;5.670;2023-03-11T00:59:45;3.60;99.90
27559;DHT22;15002;52.028;5.670;2023-03-11T01:02:11;3.60;99.90
27559;DHT22;15002;52.028;5.670;2023-03-11T01:04:37;3.50;99.90
27559;DHT22;15002;52.028;5.670;2023-03-11T01:07:02;3.50;99.90
27559;DHT22;15002;52.028;5.670;2023-03-11T01:09:28;3.50;99.90
27559;DHT22;15002;52.028;5.670;2023-03-11T01:11:54;3.50;99.90
27559;DHT22;15002;52.028;5.670;2023-03-11T01:14:20;3.50;99.90
27559;DHT22;15002;52.028;5.670;2023-03-11T01:16:45;3.50;99.90
27559;DHT22;15002;52.028;5.670;2023-03-11T01:19:11;3.50;99.90
27559;DHT22;15002;52.028;5.670;2023-03-11T01:21:37;3.40;99.90
27559;DHT22;15002;52.028;5.670;2023-03-11T01:24:03;3.40;99.90
27559;DHT22;15002;52.028;5.670;2023-03-11T01:26:29;3.40;99.90
27559;DHT22;15002;52.028;5.670;2023-03-11T01:28:54;3.40;99.90
27559;DHT22;15002;52.028;5.670;2023-03-11T01:31:20;3.40;99.90
27559;DHT22;15002;52.028;5.670;2023-03-11T01:33:46;3.30;99.90
27559;DHT22;15002;52.028;5.670;2023-03-11T01:36:11;3.30;99.90
27559;DHT22;15002;52.028;5.670;2023-03-11T01:38:37;3.30;99.90
27559;DHT22;15002;52.028;5.670;2023-03-11T01:41:03;3.40;99.90
27559;DHT22;15002;52.028;5.670;2023-03-11T01:49:11;3.40;99.90
27559;DHT22;15002;52.028;5.670;2023-03-11T01:51:46;3.40;99.90
27559;DHT22;15002;52.028;5.670;2023-03-11T01:54:17;3.40;99.90
27559;DHT22;15002;52.028;5.670;2023-03-11T01:56:45;3.40;99.90
27559;DHT22;15002;52.028;5.670;2023-03-11T01:59:15;3.40;99.90
27559;DHT22;15002;52.028;5.670;2023-03-11T02:02:05;3.50;99.90
27559;DHT22;15002;52.028;5.670;2023-03-11T02:04:35;3.50;99.90
27559;DHT22;15002;52.028;5.670;2023-03-11T02:07:01;3.50;99.90
27559;DHT22;15002;52.028;5.670;2023-03-11T02:09:28;3.50;99.90
27559;DHT22;15002;52.028;5.670;2023-03-11T02:11:53;3.50;99.90
27559;DHT22;15002;52.028;5.670;2023-03-11T02:14:20;3.50;99.90
27559;DHT22;15002;52.028;5.670;2023-03-11T02:16:46;3.50;99.90
27559;DHT22;15002;52.028;5.670;2023-03-11T02:19:54;3.50;99.90
27559;DHT22;15002;52.028;5.670;2023-03-11T02:22:17;3.60;99.90
27559;DHT22;15002;52.028;5.670;2023-03-11T02:27:23;3.60;99.90
27559;DHT22;15002;52.028;5.670;2023-03-11T02:29:51;3.70;99.90
27559;DHT22;15002;52.028;5.670;2023-03-11T02:32:18;3.70;99.90
27559;DHT22;15002;52.028;5.670;2023-03-11T02:34:45;3.70;99.90
27559;DHT22;15002;52.028;5.670;2023-03-11T02:37:13;3.70;99.90
27559;DHT22;15002;52.028;5.670;2023-03-11T02:39:44;3.70;99.90
27559;DHT22;15002;52.028;5.670;2023-03-11T02:42:30;3.70;99.90
27559;DHT22;15002;52.028;5.670;2023-03-11T02:45:11;3.70;99.90
27559;DHT22;15002;52.028;5.670;2023-03-11T02:47:38;3.70;99.90
27559;DHT22;15002;52.028;5.670;2023-03-11T02:50:05;3.70;99.90
27559;DHT22;15002;52.028;5.670;2023-03-11T02:52:34;3.80;99.90
27559;DHT22;15002;52.028;5.670;2023-03-11T02:55:00;3.80;99.90
27559;DHT22;15002;52.028;5.670;2023-03-11T02:57:26;3.80;99.90
27559;DHT22;15002;52.028;5.670;2023-03-11T02:59:51;3.80;99.90
27559;DHT22;15002;52.028;5.670;2023-03-11T03:02:17;3.80;99.90
27559;DHT22;15002;52.028;5.670;2023-03-11T03:04:42;3.80;99.90
27559;DHT22;15002;52.028;5.670;2023-03-11T03:07:08;3.80;99.90
27559;DHT22;15002;52.028;5.670;2023-03-11T03:09:35;3.80;99.90
27559;DHT22;15002;52.028;5.670;2023-03-11T03:12:01;3.80;99.90
27559;DHT22;15002;52.028;5.670;2023-03-11T03:14:27;3.80;99.90
27559;DHT22;15002;52.028;5.670;2023-03-11T03:16:53;3.80;99.90
27559;DHT22;15002;52.028;5.670;2023-03-11T03:19:19;3.70;99.90
27559;DHT22;15002;52.028;5.670;2023-03-11T03:21:45;3.80;99.90
27559;DHT22;15002;52.028;5.670;2023-03-11T03:24:10;3.80;99.90
27559;DHT22;15002;52.028;5.670;2023-03-11T03:26:36;3.80;99.90
27559;DHT22;15002;52.028;5.670;2023-03-11T03:29:03;3.70;99.90
27559;DHT22;15002;52.028;5.670;2023-03-11T03:31:29;3.70;99.90
27559;DHT22;15002;52.028;5.670;2023-03-11T03:33:54;3.60;99.90
27559;DHT22;15002;52.028;5.670;2023-03-11T03:36:20;3.60;99.90
27559;DHT22;15002;52.028;5.670;2023-03-11T03:38:46;3.60;99.90
27559;DHT22;15002;52.028;5.670;2023-03-11T03:41:14;3.60;99.90
27559;DHT22;15002;52.028;5.670;2023-03-11T03:43:41;3.50;99.90
27559;DHT22;15002;52.028;5.670;2023-03-11T03:46:06;3.50;99.90
27559;DHT22;15002;52.028;5.670;2023-03-11T03:48:32;3.50;99.90
27559;DHT22;15002;52.028;5.670;2023-03-11T03:51:07;3.50;99.90
27559;DHT22;15002;52.028;5.670;2023-03-11T03:53:34;3.50;99.90
27559;DHT22;15002;52.028;5.670;2023-03-11T03:56:04;3.50;99.90
27559;DHT22;15002;52.028;5.670;2023-03-11T03:58:30;3.40;99.90
27559;DHT22;15002;52.028;5.670;2023-03-11T04:00:57;3.40;99.90
27559;DHT22;15002;52.028;5.670;2023-03-11T04:03:24;3.40;99.90
27559;DHT22;15002;52.028;5.670;2023-03-11T04:05:50;3.40;99.90
27559;DHT22;15002;52.028;5.670;2023-03-11T04:08:16;3.30;99.90
27559;DHT22;15002;52.028;5.670;2023-03-11T04:10:42;3.30;99.90
27559;DHT22;15002;52.028;5.670;2023-03-11T04:13:08;3.30;99.90
27559;DHT22;15002;52.028;5.670;2023-03-11T04:15:33;3.20;99.90
27559;DHT22;15002;52.028;5.670;2023-03-11T04:17:59;3.20;99.90
27559;DHT22;15002;52.028;5.670;2023-03-11T04:20:25;3.10;99.90
27559;DHT22;15002;52.028;5.670;2023-03-11T04:22:50;3.10;99.90
27559;DHT22;15002;52.028;5.670;2023-03-11T04:25:16;3.10;99.90
27559;DHT22;15002;52.028;5.670;2023-03-11T04:27:42;3.20;99.90
27559;DHT22;15002;52.028;5.670;2023-03-11T04:30:11;3.10;99.90
27559;DHT22;15002;52.028;5.670;2023-03-11T04:32:37;3.10;99.90
27559;DHT22;15002;52.028;5.670;2023-03-11T04:35:04;3.10;99.90
27559;DHT22;15002;52.028;5.670;2023-03-11T04:37:30;3.10;99.90
27559;DHT22;15002;52.028;5.670;2023-03-11T04:39:55;3.00;99.90
27559;DHT22;15002;52.028;5.670;2023-03-11T04:42:21;3.00;99.90
27559;DHT22;15002;52.028;5.670;2023-03-11T04:44:47;2.90;99.90
27559;DHT22;15002;52.028;5.670;2023-03-11T04:47:12;2.90;99.90
27559;DHT22;15002;52.028;5.670;2023-03-11T04:49:38;2.80;99.90
27559;DHT22;15002;52.028;5.670;2023-03-11T04:52:04;2.80;99.90
27559;DHT22;15002;52.028;5.670;2023-03-11T04:54:29;2.80;99.90
27559;DHT22;15002;52.028;5.670;2023-03-11T04:56:55;2.80;99.90
27559;DHT22;15002;52.028;5.670;2023-03-11T04:59:21;2.80;99.90
27559;DHT22;15002;52.028;5.670;2023-03-11T05:01:46;2.70;99.90
27559;DHT22;15002;52.028;5.670;2023-03-11T05:04:12;2.70;99.90
27559;DHT22;15002;52.028;5.670;2023-03-11T05:06:37;2.70;99.90
27559;DHT22;15002;52.028;5.670;2023-03-11T05:09:03;2.70;99.90
27559;DHT22;15002;52.028;5.670;2023-03-11T05:11:30;2.70;99.90
27559;DHT22;15002;52.028;5.670;2023-03-11T05:13:56;2.70;99.90
27559;DHT22;15002;52.028;5.670;2023-03-11T05:16:21;2.70;99.90
27559;DHT22;15002;52.028;5.670;2023-03-11T05:18:47;2.60;99.90
27559;DHT22;15002;52.028;5.670;2023-03-11T05:21:13;2.60;99.90
27559;DHT22;15002;52.028;5.670;2023-03-11T05:23:38;2.60;99.90
27559;DHT22;15002;52.028;5.670;2023-03-11T05:26:05;2.60;99.90
27559;DHT22;15002;52.028;5.670;2023-03-11T05:28:30;2.50;99.90
27559;DHT22;15002;52.028;5.670;2023-03-11T05:30:56;2.50;99.90
27559;DHT22;15002;52.028;5.670;2023-03-11T05:33:22;2.50;99.90
27559;DHT22;15002;52.028;5.670;2023-03-11T05:35:47;2.50;99.90
27559;DHT22;15002;52.028;5.670;2023-03-11T05:38:16;2.50;99.90
27559;DHT22;15002;52.028;5.670;2023-03-11T05:40:41;2.40;99.90
27559;DHT22;15002;52.028;5.670;2023-03-11T05:43:07;2.40;99.90
27559;DHT22;15002;52.028;5.670;2023-03-11T05:45:33;2.40;99.90
27559;DHT22;15002;52.028;5.670;2023-03-11T05:47:59;2.30;99.90
27559;DHT22;15002;52.028;5.670;2023-03-11T05:50:24;2.30;99.90
27559;DHT22;15002;52.028;5.670;2023-03-11T05:52:50;2.30;99.90
27559;DHT22;15002;52.028;5.670;2023-03-11T05:55:16;2.20;99.90
27559;DHT22;15002;52.028;5.670;2023-03-11T05:57:41;2.30;99.90
27559;DHT22;15002;52.028;5.670;2023-03-11T06:00:08;2.20;99.90
27559;DHT22;15002;52.028;5.670;2023-03-11T06:02:40;2.20;99.90
27559;DHT22;15002;52.028;5.670;2023-03-11T06:05:06;2.20;99.90
27559;DHT22;15002;52.028;5.670;2023-03-11T06:07:35;2.20;99.90
27559;DHT22;15002;52.028;5.670;2023-03-11T06:10:02;2.20;99.90
27559;DHT22;15002;52.028;5.670;2023-03-11T06:12:28;2.10;99.90
27559;DHT22;15002;52.028;5.670;2023-03-11T06:14:54;2.20;99.90
27559;DHT22;15002;52.028;5.670;2023-03-11T06:17:20;2.10;99.90
27559;DHT22;15002;52.028;5.670;2023-03-11T06:19:45;2.10;99.90
27559;DHT22;15002;52.028;5.670;2023-03-11T06:22:11;2.10;99.90
27559;DHT22;15002;52.028;5.670;2023-03-11T06:24:37;2.10;99.90
27559;DHT22;15002;52.028;5.670;2023-03-11T06:27:02;2.10;99.90
27559;DHT22;15002;52.028;5.670;2023-03-11T06:29:28;2.10;99.90
27559;DHT22;15002;52.028;5.670;2023-03-11T06:31:54;2.10;99.90
27559;DHT22;15002;52.028;5.670;2023-03-11T06:34:20;2.10;99.90
27559;DHT22;15002;52.028;5.670;2023-03-11T06:36:46;2.20;99.90
27559;DHT22;15002;52.028;5.670;2023-03-11T06:39:14;2.20;99.90
27559;DHT22;15002;52.028;5.670;2023-03-11T06:41:41;2.20;99.90
27559;DHT22;15002;52.028;5.670;2023-03-11T06:44:11;2.30;99.90
27559;DHT22;15002;52.028;5.670;2023-03-11T06:46:37;2.50;99.90
27559;DHT22;15002;52.028;5.670;2023-03-11T06:49:03;2.50;99.90
27559;DHT22;15002;52.028;5.670;2023-03-11T06:51:28;2.70;99.90
27559;DHT22;15002;52.028;5.670;2023-03-11T06:53:54;2.90;99.90
27559;DHT22;15002;52.028;5.670;2023-03-11T06:56:22;3.10;99.90
27559;DHT22;15002;52.028;5.670;2023-03-11T06:58:47;3.30;99.90
27559;DHT22;15002;52.028;5.670;2023-03-11T07:01:16;3.40;99.90
27559;DHT22;15002;52.028;5.670;2023-03-11T07:03:42;3.60;99.90
27559;DHT22;15002;52.028;5.670;2023-03-11T07:06:16;3.70;99.90
27559;DHT22;15002;52.028;5.670;2023-03-11T07:08:42;4.00;99.90
27559;DHT22;15002;52.028;5.670;2023-03-11T07:11:34;4.50;99.90
27559;DHT22;15002;52.028;5.670;2023-03-11T07:14:00;4.90;99.90
27559;DHT22;15002;52.028;5.670;2023-03-11T07:16:27;5.30;99.90
27559;DHT22;15002;52.028;5.670;2023-03-11T07:18:56;5.40;99.90
27559;DHT22;15002;52.028;5.670;2023-03-11T07:21:24;5.50;99.90
27559;DHT22;15002;52.028;5.670;2023-03-11T07:23:55;5.40;99.90
27559;DHT22;15002;52.028;5.670;2023-03-11T07:26:21;5.60;99.90
27559;DHT22;15002;52.028;5.670;2023-03-11T07:28:47;5.60;99.90
27559;DHT22;15002;52.028;5.670;2023-03-11T07:31:23;5.80;99.90
27559;DHT22;15002;52.028;5.670;2023-03-11T07:33:50;5.70;99.90
27559;DHT22;15002;52.028;5.670;2023-03-11T07:36:18;5.90;99.90
27559;DHT22;15002;52.028;5.670;2023-03-11T07:38:44;6.10;99.90
27559;DHT22;15002;52.028;5.670;2023-03-11T07:41:12;6.20;99.90
27559;DHT22;15002;52.028;5.670;2023-03-11T07:43:39;6.20;99.90
27559;DHT22;15002;52.028;5.670;2023-03-11T07:46:10;6.20;99.90
27559;DHT22;15002;52.028;5.670;2023-03-11T07:48:37;6.30;99.90
27559;DHT22;15002;52.028;5.670;2023-03-11T07:51:10;6.30;99.90
27559;DHT22;15002;52.028;5.670;2023-03-11T07:53:36;6.30;99.90
27559;DHT22;15002;52.028;5.670;2023-03-11T07:56:03;6.30;99.90
27559;DHT22;15002;52.028;5.670;2023-03-11T07:58:29;6.30;99.90
27559;DHT22;15002;52.028;5.670;2023-03-11T08:00:55;6.40;99.90
27559;DHT22;15002;52.028;5.670;2023-03-11T08:03:22;6.40;99.90
27559;DHT22;15002;52.028;5.670;2023-03-11T08:05:48;6.40;99.90
27559;DHT22;15002;52.028;5.670;2023-03-11T08:08:14;6.40;99.90
27559;DHT22;15002;52.028;5.670;2023-03-11T08:10:40;6.60;99.90
27559;DHT22;15002;52.028;5.670;2023-03-11T08:13:05;6.80;99.90
27559;DHT22;15002;52.028;5.670;2023-03-11T08:15:31;6.90;99.90
27559;DHT22;15002;52.028;5.670;2023-03-11T08:17:57;7.10;99.90
27559;DHT22;15002;52.028;5.670;2023-03-11T08:20:23;7.20;99.90
27559;DHT22;15002;52.028;5.670;2023-03-11T08:22:49;7.50;99.90
27559;DHT22;15002;52.028;5.670;2023-03-11T08:25:15;7.70;99.90
27559;DHT22;15002;52.028;5.670;2023-03-11T08:27:40;7.90;99.90
27559;DHT22;15002;52.028;5.670;2023-03-11T08:30:07;8.00;99.90
27559;DHT22;15002;52.028;5.670;2023-03-11T08:32:33;8.20;99.90
27559;DHT22;15002;52.028;5.670;2023-03-11T08:34:59;8.30;99.90
27559;DHT22;15002;52.028;5.670;2023-03-11T08:37:25;8.30;99.90
27559;DHT22;15002;52.028;5.670;2023-03-11T08:39:50;8.30;99.90
27559;DHT22;15002;52.028;5.670;2023-03-11T08:42:16;8.30;99.90
27559;DHT22;15002;52.028;5.670;2023-03-11T08:44:42;8.20;99.90
27559;DHT22;15002;52.028;5.670;2023-03-11T08:47:08;8.30;99.90
27559;DHT22;15002;52.028;5.670;2023-03-11T08:49:33;8.40;99.90
27559;DHT22;15002;52.028;5.670;2023-03-11T08:52:00;8.20;99.90
27559;DHT22;15002;52.028;5.670;2023-03-11T08:54:26;8.20;99.90
27559;DHT22;15002;52.028;5.670;2023-03-11T08:56:52;8.30;99.90
27559;DHT22;15002;52.028;5.670;2023-03-11T08:59:17;8.40;99.90
27559;DHT22;15002;52.028;5.670;2023-03-11T09:01:43;8.40;99.90
27559;DHT22;15002;52.028;5.670;2023-03-11T09:04:09;8.50;99.90
27559;DHT22;15002;52.028;5.670;2023-03-11T09:06:34;8.50;99.90
27559;DHT22;15002;52.028;5.670;2023-03-11T09:09:00;8.60;99.90
27559;DHT22;15002;52.028;5.670;2023-03-11T09:11:26;8.30;99.90
27559;DHT22;15002;52.028;5.670;2023-03-11T09:13:51;8.60;99.90
27559;DHT22;15002;52.028;5.670;2023-03-11T09:16:20;8.70;99.90
27559;DHT22;15002;52.028;5.670;2023-03-11T09:18:46;9.00;99.40
27559;DHT22;15002;52.028;5.670;2023-03-11T09:21:12;9.20;99.30
27559;DHT22;15002;52.028;5.670;2023-03-11T09:23:38;9.30;98.60
27559;DHT22;15002;52.028;5.670;2023-03-11T09:26:04;9.40;99.60
27559;DHT22;15002;52.028;5.670;2023-03-11T09:28:30;9.60;99.20
27559;DHT22;15002;52.028;5.670;2023-03-11T09:30:56;9.70;99.00
27559;DHT22;15002;52.028;5.670;2023-03-11T09:33:22;9.90;97.60
27559;DHT22;15002;52.028;5.670;2023-03-11T09:35:47;10.00;96.20
27559;DHT22;15002;52.028;5.670;2023-03-11T09:38:13;10.00;96.50
27559;DHT22;15002;52.028;5.670;2023-03-11T09:43:48;10.10;97.30
27559;DHT22;15002;52.028;5.670;2023-03-11T09:46:26;10.30;97.80
27559;DHT22;15002;52.028;5.670;2023-03-11T09:49:17;10.20;97.30
27559;DHT22;15002;52.028;5.670;2023-03-11T09:52:08;10.20;96.30
27559;DHT22;15002;52.028;5.670;2023-03-11T09:54:41;10.10;96.50
27559;DHT22;15002;52.028;5.670;2023-03-11T09:57:14;10.20;96.30
27559;DHT22;15002;52.028;5.670;2023-03-11T09:59:43;10.30;95.90
27559;DHT22;15002;52.028;5.670;2023-03-11T10:02:18;10.10;95.10
27559;DHT22;15002;52.028;5.670;2023-03-11T10:04:57;10.10;95.10
27559;DHT22;15002;52.028;5.670;2023-03-11T10:07:32;10.20;96.90
27559;DHT22;15002;52.028;5.670;2023-03-11T10:09:59;10.30;95.20
27559;DHT22;15002;52.028;5.670;2023-03-11T10:12:47;10.30;94.70
27559;DHT22;15002;52.028;5.670;2023-03-11T10:15:39;10.50;96.20
27559;DHT22;15002;52.028;5.670;2023-03-11T10:28:49;11.00;94.50
27559;DHT22;15002;52.028;5.670;2023-03-11T10:31:20;11.20;93.60
27559;DHT22;15002;52.028;5.670;2023-03-11T10:33:51;11.00;92.50
27559;DHT22;15002;52.028;5.670;2023-03-11T10:36:23;10.70;92.30
27559;DHT22;15002;52.028;5.670;2023-03-11T10:38:50;10.80;93.60
27559;DHT22;15002;52.028;5.670;2023-03-11T10:44:24;11.00;92.20
27559;DHT22;15002;52.028;5.670;2023-03-11T10:46:52;11.00;93.00
27559;DHT22;15002;52.028;5.670;2023-03-11T10:49:17;10.80;91.80
27559;DHT22;15002;52.028;5.670;2023-03-11T10:51:46;10.70;93.50
27559;DHT22;15002;52.028;5.670;2023-03-11T10:54:26;10.80;95.10
27559;DHT22;15002;52.028;5.670;2023-03-11T10:57:00;11.00;92.70
27559;DHT22;15002;52.028;5.670;2023-03-11T10:59:53;11.00;91.80
27559;DHT22;15002;52.028;5.670;2023-03-11T11:04:47;10.70;93.30
27559;DHT22;15002;52.028;5.670;2023-03-11T11:07:35;10.40;93.20
27559;DHT22;15002;52.028;5.670;2023-03-11T11:12:57;10.70;93.00
27559;DHT22;15002;52.028;5.670;2023-03-11T11:15:33;10.80;93.00
27559;DHT22;15002;52.028;5.670;2023-03-11T11:18:05;10.60;91.00
27559;DHT22;15002;52.028;5.670;2023-03-11T11:20:32;10.60;90.80
27559;DHT22;15002;52.028;5.670;2023-03-11T11:23:02;10.80;90.80
27559;DHT22;15002;52.028;5.670;2023-03-11T11:25:39;10.90;91.70
27559;DHT22;15002;52.028;5.670;2023-03-11T11:28:16;11.00;93.00
27559;DHT22;15002;52.028;5.670;2023-03-11T11:30:54;11.00;93.60
27559;DHT22;15002;52.028;5.670;2023-03-11T11:35:53;10.80;92.60
27559;DHT22;15002;52.028;5.670;2023-03-11T11:38:22;10.70;92.40
27559;DHT22;15002;52.028;5.670;2023-03-11T11:40:52;10.60;92.90
27559;DHT22;15002;52.028;5.670;2023-03-11T11:43:31;10.60;93.50
27559;DHT22;15002;52.028;5.670;2023-03-11T11:46:10;10.60;92.90
27559;DHT22;15002;52.028;5.670;2023-03-11T11:48:48;10.40;92.10
27559;DHT22;15002;52.028;5.670;2023-03-11T11:51:22;10.50;92.10
27559;DHT22;15002;52.028;5.670;2023-03-11T11:54:14;10.50;92.30
27559;DHT22;15002;52.028;5.670;2023-03-11T11:56:42;10.50;91.20
27559;DHT22;15002;52.028;5.670;2023-03-11T11:59:19;10.50;91.90
27559;DHT22;15002;52.028;5.670;2023-03-11T12:21:40;10.10;91.80
27559;DHT22;15002;52.028;5.670;2023-03-11T12:26:48;10.00;91.10
27559;DHT22;15002;52.028;5.670;2023-03-11T12:29:20;9.70;91.90
27559;DHT22;15002;52.028;5.670;2023-03-11T12:31:49;9.70;91.30
27559;DHT22;15002;52.028;5.670;2023-03-11T12:34:18;9.70;92.60
27559;DHT22;15002;52.028;5.670;2023-03-11T12:36:46;9.80;92.40
27559;DHT22;15002;52.028;5.670;2023-03-11T12:44:41;9.60;91.80
27559;DHT22;15002;52.028;5.670;2023-03-11T12:49:34;9.40;92.60
27559;DHT22;15002;52.028;5.670;2023-03-11T12:54:40;9.50;91.30
27559;DHT22;15002;52.028;5.670;2023-03-11T13:07:56;9.50;88.00
27559;DHT22;15002;52.028;5.670;2023-03-11T13:10:38;9.70;86.40
27559;DHT22;15002;52.028;5.670;2023-03-11T13:18:38;9.50;90.50
27559;DHT22;15002;52.028;5.670;2023-03-11T13:21:05;9.30;92.10
27559;DHT22;15002;52.028;5.670;2023-03-11T13:23:50;9.50;91.80
27559;DHT22;15002;52.028;5.670;2023-03-11T13:26:46;9.50;90.70
27559;DHT22;15002;52.028;5.670;2023-03-11T13:34:53;9.60;91.00
27559;DHT22;15002;52.028;5.670;2023-03-11T13:40:12;9.30;89.90
27559;DHT22;15002;52.028;5.670;2023-03-11T13:42:49;9.30;89.90
27559;DHT22;15002;52.028;5.670;2023-03-11T13:50:50;9.40;88.40
27559;DHT22;15002;52.028;5.670;2023-03-11T13:53:27;9.60;85.60
27559;DHT22;15002;52.028;5.670;2023-03-11T13:55:54;9.70;87.20
27559;DHT22;15002;52.028;5.670;2023-03-11T13:58:36;9.80;86.90
27559;DHT22;15002;52.028;5.670;2023-03-11T14:01:01;9.70;83.80
27559;DHT22;15002;52.028;5.670;2023-03-11T14:03:31;9.70;84.10
27559;DHT22;15002;52.028;5.670;2023-03-11T14:06:04;9.50;87.70
27559;DHT22;15002;52.028;5.670;2023-03-11T14:08:35;9.50;88.70
27559;DHT22;15002;52.028;5.670;2023-03-11T14:11:25;9.60;88.60
27559;DHT22;15002;52.028;5.670;2023-03-11T14:13:51;9.60;83.60
27559;DHT22;15002;52.028;5.670;2023-03-11T14:16:33;9.70;83.30
27559;DHT22;15002;52.028;5.670;2023-03-11T14:19:16;9.60;85.90
27559;DHT22;15002;52.028;5.670;2023-03-11T14:21:44;9.60;86.30
27559;DHT22;15002;52.028;5.670;2023-03-11T14:24:27;9.70;84.60
27559;DHT22;15002;52.028;5.670;2023-03-11T14:26:54;9.80;83.30
27559;DHT22;15002;52.028;5.670;2023-03-11T14:29:37;9.50;84.10
27559;DHT22;15002;52.028;5.670;2023-03-11T14:32:24;9.50;84.60
27559;DHT22;15002;52.028;5.670;2023-03-11T14:34:50;9.50;84.80
27559;DHT22;15002;52.028;5.670;2023-03-11T14:37:32;9.50;83.00
27559;DHT22;15002;52.028;5.670;2023-03-11T14:39:57;9.50;84.10
27559;DHT22;15002;52.028;5.670;2023-03-11T14:42:33;9.60;84.90
27559;DHT22;15002;52.028;5.670;2023-03-11T14:45:20;9.60;85.10
27559;DHT22;15002;52.028;5.670;2023-03-11T14:50:24;9.80;83.70
27559;DHT22;15002;52.028;5.670;2023-03-11T14:52:58;9.70;84.60
27559;DHT22;15002;52.028;5.670;2023-03-11T14:55:31;9.80;86.40
27559;DHT22;15002;52.028;5.670;2023-03-11T15:00:27;9.80;86.40
27559;DHT22;15002;52.028;5.670;2023-03-11T15:05:58;9.70;84.80
27559;DHT22;15002;52.028;5.670;2023-03-11T15:08:29;9.70;84.40
27559;DHT22;15002;52.028;5.670;2023-03-11T15:11:01;9.70;86.60
27559;DHT22;15002;52.028;5.670;2023-03-11T15:13:27;9.80;85.30
27559;DHT22;15002;52.028;5.670;2023-03-11T15:16:01;9.70;84.10
27559;DHT22;15002;52.028;5.670;2023-03-11T15:18:35;10.00;81.20
27559;DHT22;15002;52.028;5.670;2023-03-11T15:21:17;9.90;78.50
27559;DHT22;15002;52.028;5.670;2023-03-11T15:23:45;9.90;77.90
27559;DHT22;15002;52.028;5.670;2023-03-11T15:26:23;9.80;80.20
27559;DHT22;15002;52.028;5.670;2023-03-11T15:29:00;9.70;82.50
27559;DHT22;15002;52.028;5.670;2023-03-11T15:31:37;9.80;82.50
27559;DHT22;15002;52.028;5.670;2023-03-11T15:34:25;9.80;82.80
27559;DHT22;15002;52.028;5.670;2023-03-11T15:37:04;9.80;81.40
27559;DHT22;15002;52.028;5.670;2023-03-11T15:42:00;9.70;76.50
27559;DHT22;15002;52.028;5.670;2023-03-11T15:46:57;9.60;72.70
27559;DHT22;15002;52.028;5.670;2023-03-11T15:49:27;9.60;74.40
27559;DHT22;15002;52.028;5.670;2023-03-11T15:51:57;9.70;76.90
27559;DHT22;15002;52.028;5.670;2023-03-11T15:54:23;9.70;78.40
27559;DHT22;15002;52.028;5.670;2023-03-11T15:56:48;9.60;80.30
27559;DHT22;15002;52.028;5.670;2023-03-11T15:59:15;9.50;81.80
27559;DHT22;15002;52.028;5.670;2023-03-11T16:01:41;9.50;79.40
27559;DHT22;15002;52.028;5.670;2023-03-11T16:04:15;9.50;78.90
27559;DHT22;15002;52.028;5.670;2023-03-11T16:06:42;9.60;79.40
27559;DHT22;15002;52.028;5.670;2023-03-11T16:09:08;9.50;81.00
27559;DHT22;15002;52.028;5.670;2023-03-11T16:11:34;9.50;83.00
27559;DHT22;15002;52.028;5.670;2023-03-11T16:14:00;9.50;83.80
27559;DHT22;15002;52.028;5.670;2023-03-11T16:16:26;9.40;82.90
27559;DHT22;15002;52.028;5.670;2023-03-11T16:18:52;9.40;82.10
27559;DHT22;15002;52.028;5.670;2023-03-11T16:21:20;9.30;83.30
27559;DHT22;15002;52.028;5.670;2023-03-11T16:23:46;9.40;83.80
27559;DHT22;15002;52.028;5.670;2023-03-11T16:26:13;9.30;81.60
27559;DHT22;15002;52.028;5.670;2023-03-11T16:28:39;9.30;81.90
27559;DHT22;15002;52.028;5.670;2023-03-11T16:31:06;9.20;81.30
27559;DHT22;15002;52.028;5.670;2023-03-11T16:33:35;9.20;82.40
27559;DHT22;15002;52.028;5.670;2023-03-11T16:36:02;9.20;82.50
27559;DHT22;15002;52.028;5.670;2023-03-11T16:38:29;9.20;83.50
27559;DHT22;15002;52.028;5.670;2023-03-11T16:41:00;9.20;81.90
27559;DHT22;15002;52.028;5.670;2023-03-11T16:43:27;9.20;82.10
27559;DHT22;15002;52.028;5.670;2023-03-11T16:45:53;9.40;81.80
27559;DHT22;15002;52.028;5.670;2023-03-11T16:48:20;9.30;82.50
27559;DHT22;15002;52.028;5.670;2023-03-11T16:50:46;9.10;82.60
27559;DHT22;15002;52.028;5.670;2023-03-11T16:53:12;9.10;82.80
27559;DHT22;15002;52.028;5.670;2023-03-11T16:55:40;9.00;82.10
27559;DHT22;15002;52.028;5.670;2023-03-11T16:58:06;9.00;82.90
27559;DHT22;15002;52.028;5.670;2023-03-11T17:00:32;8.90;83.90
27559;DHT22;15002;52.028;5.670;2023-03-11T17:02:58;9.00;83.80
27559;DHT22;15002;52.028;5.670;2023-03-11T17:05:24;8.90;84.50
27559;DHT22;15002;52.028;5.670;2023-03-11T17:07:56;8.90;84.10
27559;DHT22;15002;52.028;5.670;2023-03-11T17:10:26;8.80;86.10
27559;DHT22;15002;52.028;5.670;2023-03-11T17:12:53;8.80;86.00
27559;DHT22;15002;52.028;5.670;2023-03-11T17:15:19;8.70;86.50
27559;DHT22;15002;52.028;5.670;2023-03-11T17:17:45;8.60;87.90
27559;DHT22;15002;52.028;5.670;2023-03-11T17:20:11;8.60;86.80
27559;DHT22;15002;52.028;5.670;2023-03-11T17:22:37;8.50;87.20
27559;DHT22;15002;52.028;5.670;2023-03-11T17:25:03;8.50;88.10
27559;DHT22;15002;52.028;5.670;2023-03-11T17:27:30;8.40;89.60
27559;DHT22;15002;52.028;5.670;2023-03-11T17:30:01;8.40;90.20
27559;DHT22;15002;52.028;5.670;2023-03-11T17:32:28;8.30;90.10
27559;DHT22;15002;52.028;5.670;2023-03-11T17:34:54;8.30;90.30
27559;DHT22;15002;52.028;5.670;2023-03-11T17:37:19;8.20;89.90
27559;DHT22;15002;52.028;5.670;2023-03-11T17:39:45;8.20;89.70
27559;DHT22;15002;52.028;5.670;2023-03-11T17:42:10;8.10;89.90
27559;DHT22;15002;52.028;5.670;2023-03-11T17:44:36;8.10;90.80